Briefing drone pour Garons

Rechercher une autre localisation

Conditions de vol :


Nous sommes le : Samedi 13 avril 2024
Il est 23:26 UTC (01:26 LT)

Lever de soleil : 04:35 UTC (06:35 LT)
Coucher de soleil : 18:50 UTC (20:50 LT)

Météo

L'essentiel des conditions de vol

VIGILANCE MÉTÉO FRANCE - Gard (30)
Pas de vigilances particulieres
CARTE TEMSI
CARTES DES FRONTS
METAR de LFTW
LFTW 122300Z AUTO 01007KT 340V040 CAVOK 18/09 Q1028

Date d'émission: 12/04/2024
Heure d'émission: 23:00 UTC
Vent: 010° (variable du 340° au 040°) pour 7 KT (13 km/h)
Visibilité horizontale: > 10 km
Plafond : Plafond et visibilité OK (CAVOK)
Température: 18 °C
Point de rosée: 9 °C
Humidité: 56%
Pression (QNH): 1028 hPa
TAF de LFTW
LFTW 121900Z 1219/1315 CNL

Conditions prévues :

Heure d'émission : Bulletin éffectué le 12 à 19:00 UTC
Prévision : Valide du 12 a 19:00 UTC au 13 a 15:00 UTC
Nuages : à 0ft (0 m)
WEBCAM POUR GARONS

Réglementation

Voler en sécurité

CARTES AERONAUTIQUE 1/500.000
CARTE AZBA (Reseau basse altitude)
CARTES VAC (LFTW)
SUP AIP




Chargement des AIP...
NOTAM (GARONS + Terrain à proximité / FIR )




Chargement des NOTAMS...
CONTACT PREFECTURE 30
Gard (30) : [email protected]


Avertissement : Les données mises à disposition sont indicatives. Oxygène Drone ne pourra être tenu responsable de dégâts causés aux biens et aux personnes.